Nearby METAR Reports

 

NZAA - Auckland Intl Ar, New Zealand
Distance from station: SW 18km
Updated: 13/04/2024 02:30
Overcast
Overcast
 Wind from N
Wind: N 7 km/h
Temperature: 15°C
Dew Point: 14°C
Humidity: 94%
Barometer: 1010 hPa
Clouds: Overcast
Visibility: 10 km
Cloud details: Few Clouds 1067 m
Mostly cloudy 1402 m
Overcast 1676 m
2024/04/12 14:30 NZAA 121430Z AUTO 35004KT 9999 FEW035/// BKN046/// OVC055/// 15/14 Q1010
NZWP - Whenuapai (nz-Af, New Zealand
Distance from station: WNW 30km
Updated: 09/11/2022 11:00
NOT Current
Mostly cloudy
Mostly cloudy
 Wind from SSE
Wind: SSE 15 km/h
Temperature: 17°C
Dew Point: 14°C
Humidity: 83%
Barometer: 1012 hPa
Clouds: Mostly cloudy
Cloud details: Few Clouds 457 m
Partly cloudy 762 m
Mostly cloudy 1219 m
2022/11/08 22:00 NZWP 082200Z 16008KT 120V200 20KM FEW015 SCT025 BKN040 17/14 Q1012 NOSIG
 
NZWN - Wellington Intl, New Zealand
Distance from station: S 493km
Updated: 13/04/2024 02:30
Light drizzle, Mist, Overcast
Light drizzle, Mist, Overcast
 Wind from S
Wind: S 17 km/h
Temperature: 12°C
Dew Point: 12°C
Humidity: 100%
Barometer: 1007 hPa
Summary: Light drizzle, Mist
Clouds: Overcast
Visibility: 2 km
Cloud details: Mostly cloudy 213 m
Overcast 396 m
2024/04/12 14:30 NZWN 121430Z AUTO 19009KT 2200 -DZ BR BKN007/// OVC013/// 12/12 Q1007
NZCH - Christchurch Int, New Zealand
Distance from station: SSW 759km
Updated: 13/04/2024 02:30
Mostly cloudy
Mostly cloudy
 Wind from WSW
Wind: WSW 11 km/h
Temperature: 9°C
Wind Chill: 7°C
Dew Point: 8°C
Humidity: 94%
Barometer: 1006 hPa
Clouds: Mostly cloudy
Visibility: 10 km
Cloud details: Mostly cloudy 2134 m
2024/04/12 14:30 NZCH 121430Z AUTO 25006KT 9999 BKN070/// 09/08 Q1006
 
YSNF - Norfolk Island A, Australia
Distance from station: NW 1091km
Updated: 13/04/2024 02:30
Partly cloudy
Partly cloudy
 Wind from S
Wind: S 19 km/h
Temperature: 20°C
Dew Point: 13°C
Humidity: 64%
Barometer: 1016 hPa
Clouds: Partly cloudy
Visibility: 10 km
Cloud details: Partly cloudy 1067 m
Partly cloudy 1859 m
2024/04/12 14:30 YSNF 121430Z AUTO 18010KT 9999 // SCT035 SCT061 20/13 Q1016